Time;durP1;ratioP1;P1;durP2;ratioP2;P2;SDS_P1;SDS_P2;PMS_P1;PMS_P2;Temp;Humidity;BMP_temperature;BMP_pressure;BME280_temperature;BME280_humidity;BME280_pressure;Samples;Min_cycle;Max_cycle;Signal;HPM_P1;HPM_P2
2022/06/02 00:02:20;;;;;;;2.13;1.03;;;;;;;;;;5048073;28;20735;-64
2022/06/02 00:04:51;;;;;;;2.13;1.00;;;;;;;;;;5047279;28;20201;-64
2022/06/02 00:07:24;;;;;;;0.80;0.80;;;;;;;;;;5026694;28;20195;-63
2022/06/02 00:10:04;;;;;;;1.13;1.00;;;;;;;;;;5047440;28;20191;-64
2022/06/02 00:12:47;;;;;;;1.00;0.90;;;;;;;;;;5045471;28;20291;-64
2022/06/02 00:15:33;;;;;;;1.00;0.90;;;;;;;;;;5044626;28;20193;-64
2022/06/02 00:18:03;;;;;;;1.03;1.00;;;;;;;;;;5046568;28;20194;-64
2022/06/02 00:20:30;;;;;;;0.80;0.80;;;;;;;;;;5028903;28;20218;-63
2022/06/02 00:22:57;;;;;;;1.03;0.80;;;;;;;;;;5028116;28;20265;-63
2022/06/02 00:25:31;;;;;;;0.97;0.80;;;;;;;;;;5036019;28;20207;-64
2022/06/02 00:28:02;;;;;;;1.00;0.87;;;;;;;;;;5046392;28;20198;-64
2022/06/02 00:30:34;;;;;;;1.20;0.97;;;;;;;;;;5043236;28;20233;-64
2022/06/02 00:33:23;;;;;;;0.80;0.80;;;;;;;;;;5035423;28;20190;-64
2022/06/02 00:35:53;;;;;;;1.00;0.87;;;;;;;;;;5022856;28;20214;-64
2022/06/02 00:38:24;;;;;;;1.10;1.00;;;;;;;;;;5037983;28;20735;-64
2022/06/02 00:40:51;;;;;;;1.20;0.90;;;;;;;;;;5049264;28;20614;-64
2022/06/02 00:43:30;;;;;;;0.77;0.77;;;;;;;;;;5024799;28;20302;-64
2022/06/02 00:46:18;;;;;;;1.30;0.97;;;;;;;;;;5037955;28;20805;-65
2022/06/02 00:49:20;;;;;;;0.90;0.90;;;;;;;;;;5032943;28;20288;-64
2022/06/02 00:51:53;;;;;;;0.80;0.80;;;;;;;;;;5000229;28;20213;-64
2022/06/02 00:57:35;;;;;;;0.70;0.70;;;;;;;;;;5026230;28;20191;-64
2022/06/02 01:00:06;;;;;;;1.00;0.90;;;;;;;;;;5029022;28;20233;-65
2022/06/02 01:02:38;;;;;;;0.87;0.83;;;;;;;;;;5036921;28;20300;-64
2022/06/02 01:05:05;;;;;;;2.40;1.00;;;;;;;;;;5029810;28;20217;-64
2022/06/02 01:07:47;;;;;;;1.00;1.00;;;;;;;;;;5043182;28;20445;-64
2022/06/02 01:10:20;;;;;;;0.87;0.80;;;;;;;;;;5044507;28;20222;-64
2022/06/02 01:12:51;;;;;;;0.60;0.60;;;;;;;;;;5029589;28;20242;-64
2022/06/02 01:15:37;;;;;;;0.80;0.80;;;;;;;;;;5039121;28;20198;-64
2022/06/02 01:18:30;;;;;;;0.80;0.80;;;;;;;;;;5037934;28;20546;-63
2022/06/02 01:21:03;;;;;;;0.77;0.77;;;;;;;;;;5035358;28;20217;-64
2022/06/02 01:23:49;;;;;;;0.80;0.80;;;;;;;;;;5032064;28;20292;-64
2022/06/02 01:26:22;;;;;;;0.70;0.70;;;;;;;;;;5046416;28;20218;-64
2022/06/02 01:29:05;;;;;;;1.17;0.80;;;;;;;;;;5043619;28;20194;-63
2022/06/02 01:32:01;;;;;;;1.10;1.00;;;;;;;;;;5042125;28;20289;-63
2022/06/02 01:34:35;;;;;;;1.20;0.80;;;;;;;;;;5024239;28;20202;-63
2022/06/02 01:37:22;;;;;;;0.80;0.80;;;;;;;;;;5042589;28;20206;-63
2022/06/02 01:39:56;;;;;;;0.83;0.80;;;;;;;;;;5045644;28;20226;-63
2022/06/02 01:42:38;;;;;;;0.80;0.80;;;;;;;;;;5058995;28;20182;-63
2022/06/02 01:45:30;;;;;;;1.03;0.93;;;;;;;;;;5045735;28;20194;-64
2022/06/02 01:48:16;;;;;;;0.80;0.80;;;;;;;;;;5042820;28;20221;-63
2022/06/02 01:50:56;;;;;;;0.80;0.80;;;;;;;;;;5049699;28;20202;-64
2022/06/02 01:53:33;;;;;;;1.07;0.97;;;;;;;;;;5046927;28;20212;-64
2022/06/02 01:56:00;;;;;;;1.00;0.90;;;;;;;;;;5059313;28;20198;-63
2022/06/02 01:58:36;;;;;;;1.43;0.90;;;;;;;;;;5051684;28;20201;-63
2022/06/02 02:01:12;;;;;;;0.70;0.70;;;;;;;;;;5048480;28;20284;-63
2022/06/02 02:03:59;;;;;;;0.80;0.80;;;;;;;;;;5050035;28;20244;-64
2022/06/02 02:06:37;;;;;;;0.87;0.87;;;;;;;;;;5051114;28;20194;-64
2022/06/02 02:09:13;;;;;;;0.70;0.70;;;;;;;;;;5051038;28;20205;-64
2022/06/02 02:11:51;;;;;;;0.90;0.70;;;;;;;;;;5050875;28;20210;-64
2022/06/02 02:14:41;;;;;;;0.93;0.80;;;;;;;;;;5050312;28;20194;-63
2022/06/02 02:17:37;;;;;;;0.80;0.80;;;;;;;;;;5045093;28;20191;-64
2022/06/02 02:20:29;;;;;;;0.80;0.80;;;;;;;;;;5049830;28;20214;-64
2022/06/02 02:23:24;;;;;;;0.80;0.80;;;;;;;;;;5034191;28;20631;-64
2022/06/02 02:26:14;;;;;;;1.03;0.90;;;;;;;;;;5051911;28;20204;-63
2022/06/02 02:29:04;;;;;;;0.70;0.70;;;;;;;;;;5052120;28;20190;-63
2022/06/02 02:31:50;;;;;;;0.83;0.83;;;;;;;;;;5032688;28;20205;-63
2022/06/02 02:34:18;;;;;;;0.83;0.70;;;;;;;;;;5044768;28;20198;-63
2022/06/02 02:37:05;;;;;;;0.97;0.73;;;;;;;;;;5050904;28;20226;-63
2022/06/02 02:39:32;;;;;;;0.80;0.63;;;;;;;;;;5033843;28;20207;-63
2022/06/02 02:42:09;;;;;;;0.97;0.97;;;;;;;;;;5045742;28;20206;-64
2022/06/02 02:44:57;;;;;;;0.83;0.83;;;;;;;;;;5050524;28;20627;-63
2022/06/02 02:47:29;;;;;;;0.70;0.70;;;;;;;;;;5038192;28;20203;-63
2022/06/02 02:49:56;;;;;;;0.80;0.80;;;;;;;;;;5049362;28;20226;-62
2022/06/02 02:52:39;;;;;;;1.00;0.73;;;;;;;;;;5037755;28;20209;-63
2022/06/02 02:55:06;;;;;;;1.13;0.90;;;;;;;;;;5032762;28;20770;-63
2022/06/02 02:57:33;;;;;;;1.30;1.00;;;;;;;;;;5047564;28;20190;-63
2022/06/02 03:00:10;;;;;;;0.67;0.67;;;;;;;;;;5046247;28;20718;-64
2022/06/02 03:02:55;;;;;;;0.80;0.73;;;;;;;;;;5047704;28;20234;-63
2022/06/02 03:05:26;;;;;;;1.23;0.90;;;;;;;;;;5048267;28;20592;-63
2022/06/02 03:07:58;;;;;;;0.87;0.87;;;;;;;;;;5055985;28;20628;-64
2022/06/02 03:10:25;;;;;;;0.80;0.80;;;;;;;;;;5048999;28;20203;-64
2022/06/02 03:12:58;;;;;;;0.80;0.80;;;;;;;;;;5053172;28;20210;-63
2022/06/02 03:15:34;;;;;;;0.90;0.90;;;;;;;;;;5046005;28;20198;-64
2022/06/02 03:18:04;;;;;;;0.90;0.90;;;;;;;;;;5048238;28;20267;-63
2022/06/02 03:20:50;;;;;;;0.70;0.70;;;;;;;;;;5030316;28;20210;-63
2022/06/02 03:23:20;;;;;;;0.80;0.80;;;;;;;;;;5048229;28;20233;-63
2022/06/02 03:25:56;;;;;;;0.67;0.67;;;;;;;;;;5048559;28;20636;-63
2022/06/02 03:28:28;;;;;;;1.20;0.97;;;;;;;;;;5047887;28;20604;-64
2022/06/02 03:31:17;;;;;;;0.70;0.70;;;;;;;;;;5048459;28;20743;-64
2022/06/02 03:34:00;;;;;;;0.60;0.60;;;;;;;;;;5035739;28;20544;-63
2022/06/02 03:36:27;;;;;;;1.20;1.00;;;;;;;;;;5045820;28;20640;-64
2022/06/02 03:39:08;;;;;;;0.90;0.77;;;;;;;;;;5048791;28;20688;-64
2022/06/02 03:41:47;;;;;;;1.03;1.00;;;;;;;;;;5048853;28;20655;-62
2022/06/02 03:44:22;;;;;;;0.90;0.90;;;;;;;;;;5051164;28;20603;-63
2022/06/02 03:47:12;;;;;;;1.20;1.10;;;;;;;;;;5047753;28;20205;-63
2022/06/02 03:49:51;;;;;;;0.80;0.80;;;;;;;;;;5028359;28;20540;-63
2022/06/02 03:52:41;;;;;;;1.17;0.90;;;;;;;;;;5035735;28;20195;-63
2022/06/02 03:55:15;;;;;;;0.70;0.70;;;;;;;;;;5043165;28;20205;-64
2022/06/02 03:57:42;;;;;;;1.43;0.80;;;;;;;;;;5048176;28;20191;-64
2022/06/02 04:00:14;;;;;;;0.90;0.90;;;;;;;;;;5044993;28;20218;-64
2022/06/02 04:02:54;;;;;;;0.80;0.80;;;;;;;;;;5043565;28;20260;-64
2022/06/02 04:05:37;;;;;;;1.10;0.90;;;;;;;;;;5044318;28;20319;-64
2022/06/02 04:08:24;;;;;;;0.90;0.83;;;;;;;;;;5045942;28;20264;-64
2022/06/02 04:11:11;;;;;;;1.47;0.80;;;;;;;;;;5046396;28;20203;-65
2022/06/02 04:13:59;;;;;;;2.40;1.23;;;;;;;;;;5043372;28;20206;-66
2022/06/02 04:16:40;;;;;;;0.93;0.83;;;;;;;;;;5047676;28;20213;-65
2022/06/02 04:22:34;;;;;;;1.80;0.97;;;;;;;;;;5025180;28;20274;-66
2022/06/02 04:25:21;;;;;;;0.97;0.93;;;;;;;;;;5041659;28;20220;-65
2022/06/02 04:27:56;;;;;;;0.90;0.80;;;;;;;;;;5041954;28;20648;-66
2022/06/02 04:30:24;;;;;;;1.57;0.80;;;;;;;;;;5044554;28;20577;-64
2022/06/02 04:33:10;;;;;;;1.10;0.90;;;;;;;;;;5041710;28;20229;-64
2022/06/02 04:35:57;;;;;;;2.13;1.00;;;;;;;;;;5033358;28;20219;-65
2022/06/02 04:38:50;;;;;;;1.00;0.80;;;;;;;;;;5044506;28;20207;-65
2022/06/02 04:41:32;;;;;;;1.00;0.93;;;;;;;;;;5037278;28;20218;-65
2022/06/02 04:44:24;;;;;;;0.97;0.87;;;;;;;;;;5029023;28;20272;-65
2022/06/02 04:47:13;;;;;;;1.07;0.90;;;;;;;;;;5027230;28;20240;-64
2022/06/02 04:49:41;;;;;;;0.80;0.80;;;;;;;;;;5047019;28;20309;-64
2022/06/02 04:52:21;;;;;;;1.27;0.90;;;;;;;;;;5029699;28;20190;-64
2022/06/02 04:55:01;;;;;;;1.13;1.00;;;;;;;;;;5029079;28;20195;-64
2022/06/02 04:57:51;;;;;;;1.40;1.10;;;;;;;;;;5017733;28;20207;-65
2022/06/02 05:00:35;;;;;;;0.97;0.97;;;;;;;;;;5030228;28;20210;-65
2022/06/02 05:03:22;;;;;;;1.20;1.00;;;;;;;;;;5035567;28;20777;-66
2022/06/02 05:05:51;;;;;;;1.17;0.97;;;;;;;;;;5042842;28;20199;-65
2022/06/02 05:08:42;;;;;;;0.73;0.70;;;;;;;;;;5037414;28;20195;-65
2022/06/02 05:11:33;;;;;;;1.07;1.00;;;;;;;;;;5026969;28;20195;-64
2022/06/02 05:14:03;;;;;;;2.63;1.47;;;;;;;;;;5045978;28;20188;-66
2022/06/02 05:16:40;;;;;;;22.40;7.33;;;;;;;;;;5047764;28;20200;-65
2022/06/02 05:19:28;;;;;;;28.33;9.30;;;;;;;;;;5031407;28;20198;-65
2022/06/02 05:22:18;;;;;;;28.57;8.73;;;;;;;;;;5038426;28;20261;-65
2022/06/02 05:24:52;;;;;;;32.30;9.50;;;;;;;;;;5043385;28;20237;-66
2022/06/02 05:27:40;;;;;;;32.00;10.37;;;;;;;;;;5044313;28;20256;-64
2022/06/02 05:30:28;;;;;;;28.37;10.57;;;;;;;;;;5042079;28;20197;-66
2022/06/02 05:33:09;;;;;;;30.17;10.77;;;;;;;;;;5033170;28;20655;-66
2022/06/02 05:35:57;;;;;;;29.87;10.27;;;;;;;;;;5027972;28;20215;-66
2022/06/02 05:38:48;;;;;;;33.70;10.97;;;;;;;;;;5048995;28;20198;-65
2022/06/02 05:41:50;;;;;;;30.10;9.80;;;;;;;;;;5032830;28;20453;-64
2022/06/02 05:44:23;;;;;;;30.47;10.10;;;;;;;;;;5037587;28;20542;-64
2022/06/02 05:47:16;;;;;;;32.77;9.97;;;;;;;;;;5044750;28;20272;-64
2022/06/02 05:50:03;;;;;;;24.20;8.63;;;;;;;;;;5035240;28;20205;-64
2022/06/02 05:52:51;;;;;;;25.53;9.23;;;;;;;;;;5032628;28;20183;-66
2022/06/02 05:55:33;;;;;;;21.47;8.20;;;;;;;;;;5034138;28;20716;-64
2022/06/02 05:58:34;;;;;;;18.00;7.87;;;;;;;;;;5045310;28;20186;-64
2022/06/02 06:01:11;;;;;;;19.50;7.13;;;;;;;;;;5027667;28;20255;-64
2022/06/02 06:03:39;;;;;;;18.63;7.23;;;;;;;;;;5014219;28;20249;-63
2022/06/02 06:06:33;;;;;;;13.13;6.40;;;;;;;;;;5027640;28;20191;-64
2022/06/02 06:09:12;;;;;;;15.80;6.90;;;;;;;;;;4983378;28;20238;-64
2022/06/02 06:12:00;;;;;;;13.60;6.13;;;;;;;;;;5019650;28;20613;-65
2022/06/02 06:14:46;;;;;;;13.73;5.73;;;;;;;;;;5011694;28;20199;-65
2022/06/02 06:17:36;;;;;;;11.57;5.53;;;;;;;;;;5018474;28;20195;-64
2022/06/02 06:20:07;;;;;;;10.30;4.80;;;;;;;;;;5015736;28;20196;-63
2022/06/02 06:22:47;;;;;;;9.17;4.90;;;;;;;;;;5022808;28;20219;-63
2022/06/02 06:25:18;;;;;;;14.60;5.63;;;;;;;;;;5023758;28;20206;-65
2022/06/02 06:28:14;;;;;;;25.47;7.77;;;;;;;;;;5017116;28;20265;-65
2022/06/02 06:30:57;;;;;;;31.53;9.57;;;;;;;;;;5026741;28;20222;-64
2022/06/02 06:33:46;;;;;;;24.73;7.97;;;;;;;;;;5006433;28;20191;-63
2022/06/02 06:36:33;;;;;;;29.13;8.70;;;;;;;;;;5021128;28;20215;-65
2022/06/02 06:39:09;;;;;;;28.33;9.67;;;;;;;;;;5021845;28;20191;-65
2022/06/02 06:41:58;;;;;;;31.37;9.90;;;;;;;;;;5023323;28;20419;-66
2022/06/02 06:44:27;;;;;;;27.37;9.53;;;;;;;;;;5035888;28;20206;-67
2022/06/02 06:46:58;;;;;;;25.07;9.77;;;;;;;;;;5014266;28;20202;-67
2022/06/02 06:49:34;;;;;;;25.07;10.27;;;;;;;;;;5021699;28;20912;-66
2022/06/02 06:52:19;;;;;;;24.73;9.90;;;;;;;;;;5016282;28;20195;-66
2022/06/02 06:55:11;;;;;;;24.07;8.73;;;;;;;;;;5025685;28;20199;-66
2022/06/02 06:57:43;;;;;;;21.50;9.17;;;;;;;;;;5020395;28;20657;-63
2022/06/02 07:00:10;;;;;;;24.17;8.43;;;;;;;;;;5024755;28;20222;-66
2022/06/02 07:02:48;;;;;;;19.37;7.83;;;;;;;;;;5018061;28;20238;-68
2022/06/02 07:05:27;;;;;;;25.90;8.63;;;;;;;;;;5044187;28;20461;-69
2022/06/02 07:08:07;;;;;;;18.83;7.97;;;;;;;;;;5036021;28;20195;-67
2022/06/02 07:10:39;;;;;;;16.70;7.43;;;;;;;;;;5040676;28;20190;-65
2022/06/02 07:13:12;;;;;;;16.63;7.70;;;;;;;;;;5047534;28;20202;-66
2022/06/02 07:15:44;;;;;;;18.43;7.37;;;;;;;;;;5052098;28;20224;-65
2022/06/02 07:18:33;;;;;;;11.70;6.60;;;;;;;;;;5043245;28;20718;-64
2022/06/02 07:21:22;;;;;;;14.73;6.77;;;;;;;;;;5049568;28;20233;-64
2022/06/02 07:23:52;;;;;;;11.57;6.23;;;;;;;;;;5046246;28;20214;-65
2022/06/02 07:26:38;;;;;;;15.73;6.07;;;;;;;;;;5047282;28;20631;-65
2022/06/02 07:29:17;;;;;;;13.10;5.87;;;;;;;;;;5029316;28;20209;-65
2022/06/02 07:31:55;;;;;;;17.30;5.80;;;;;;;;;;5034416;28;20201;-67
2022/06/02 07:34:43;;;;;;;15.03;5.40;;;;;;;;;;5044439;28;20244;-65
2022/06/02 07:37:29;;;;;;;9.37;4.93;;;;;;;;;;5046262;28;20240;-67
2022/06/02 07:40:28;;;;;;;18.97;4.83;;;;;;;;;;5051866;28;20536;-67
2022/06/02 07:42:59;;;;;;;13.57;4.60;;;;;;;;;;5014822;28;20663;-66
2022/06/02 07:45:47;;;;;;;9.70;3.97;;;;;;;;;;5048232;28;20255;-69
2022/06/02 07:48:26;;;;;;;9.70;4.73;;;;;;;;;;5040941;28;20213;-69
2022/06/02 07:51:07;;;;;;;9.63;4.07;;;;;;;;;;5054829;28;20238;-68
2022/06/02 07:53:51;;;;;;;6.93;3.97;;;;;;;;;;5045853;28;20193;-67
2022/06/02 07:56:49;;;;;;;9.23;3.93;;;;;;;;;;5028230;28;20197;-67
2022/06/02 07:59:38;;;;;;;10.77;3.73;;;;;;;;;;5043377;28;20202;-68
2022/06/02 08:02:10;;;;;;;9.30;3.57;;;;;;;;;;5035734;28;20443;-66
2022/06/02 08:05:04;;;;;;;4.90;3.00;;;;;;;;;;5043154;28;20182;-65
2022/06/02 08:07:54;;;;;;;7.40;3.50;;;;;;;;;;5037418;28;20248;-66
2022/06/02 08:10:50;;;;;;;4.63;3.00;;;;;;;;;;5035274;28;20217;-67
2022/06/02 08:13:41;;;;;;;6.00;2.60;;;;;;;;;;5025886;28;20272;-68
2022/06/02 08:16:15;;;;;;;6.23;2.43;;;;;;;;;;5046058;28;20750;-67
2022/06/02 08:18:49;;;;;;;5.53;2.10;;;;;;;;;;5056416;28;20194;-67
2022/06/02 08:21:36;;;;;;;3.77;2.33;;;;;;;;;;5018971;28;20199;-69
2022/06/02 08:24:10;;;;;;;2.63;1.90;;;;;;;;;;5031208;28;20214;-69
2022/06/02 08:26:59;;;;;;;3.90;2.10;;;;;;;;;;5048785;28;20182;-66
2022/06/02 08:29:29;;;;;;;5.47;1.97;;;;;;;;;;5039779;28;20190;-66
2022/06/02 08:32:02;;;;;;;5.37;2.50;;;;;;;;;;5046666;28;20259;-63
2022/06/02 08:34:36;;;;;;;3.40;2.00;;;;;;;;;;5047221;28;20190;-64
2022/06/02 08:37:23;;;;;;;5.97;2.57;;;;;;;;;;5044700;28;20547;-65
2022/06/02 08:40:17;;;;;;;3.97;2.03;;;;;;;;;;5046476;28;20206;-64
2022/06/02 08:43:19;;;;;;;10.47;2.13;;;;;;;;;;5038176;28;20349;-66
2022/06/02 08:46:00;;;;;;;3.57;1.93;;;;;;;;;;5056012;28;20202;-68
2022/06/02 08:48:44;;;;;;;2.80;1.73;;;;;;;;;;5026313;28;20240;-66
2022/06/02 08:51:36;;;;;;;3.20;1.60;;;;;;;;;;5049579;28;20220;-71
2022/06/02 08:54:35;;;;;;;7.27;2.27;;;;;;;;;;5001420;28;20640;-66
2022/06/02 08:57:15;;;;;;;7.83;1.67;;;;;;;;;;5036979;28;20194;-69
2022/06/02 08:59:47;;;;;;;4.57;1.70;;;;;;;;;;5032578;28;20671;-67
2022/06/02 09:02:19;;;;;;;6.07;1.67;;;;;;;;;;5047477;28;20315;-70
2022/06/02 09:04:59;;;;;;;2.97;1.63;;;;;;;;;;5037655;28;20202;-69
2022/06/02 09:07:42;;;;;;;2.63;1.50;;;;;;;;;;5042164;28;20190;-70
2022/06/02 09:10:28;;;;;;;2.90;1.43;;;;;;;;;;5045695;28;20531;-66
2022/06/02 09:13:16;;;;;;;1.70;1.50;;;;;;;;;;5030454;28;20238;-66
2022/06/02 09:16:04;;;;;;;3.10;1.23;;;;;;;;;;5037130;28;20608;-67
2022/06/02 09:18:50;;;;;;;2.50;1.30;;;;;;;;;;5043467;28;20539;-66
2022/06/02 09:21:53;;;;;;;2.40;1.40;;;;;;;;;;5031980;28;20286;-65
2022/06/02 09:24:25;;;;;;;1.83;1.30;;;;;;;;;;5029399;28;20623;-66
2022/06/02 09:27:14;;;;;;;1.50;1.17;;;;;;;;;;5042235;28;20209;-66
2022/06/02 09:30:02;;;;;;;1.90;1.27;;;;;;;;;;5043182;28;20198;-65
2022/06/02 09:32:53;;;;;;;1.40;1.10;;;;;;;;;;5039967;28;20192;-67
2022/06/02 09:35:28;;;;;;;1.57;1.20;;;;;;;;;;5037032;28;20204;-65
2022/06/02 09:38:17;;;;;;;1.40;1.30;;;;;;;;;;5043029;28;20659;-65
2022/06/02 09:40:48;;;;;;;2.40;1.50;;;;;;;;;;5042836;28;20198;-66
2022/06/02 09:43:22;;;;;;;1.73;1.30;;;;;;;;;;5043133;28;20222;-66
2022/06/02 09:45:55;;;;;;;3.23;1.43;;;;;;;;;;5044388;28;20190;-66
2022/06/02 09:48:52;;;;;;;1.40;1.30;;;;;;;;;;5022656;28;20783;-66
2022/06/02 09:51:39;;;;;;;1.50;1.33;;;;;;;;;;5044619;28;20567;-65
2022/06/02 09:54:19;;;;;;;1.30;1.20;;;;;;;;;;5041997;28;20198;-65
2022/06/02 10:00:27;;;;;;;2.77;1.30;;;;;;;;;;5032245;28;20564;-65
2022/06/02 10:03:15;;;;;;;1.83;1.20;;;;;;;;;;5049186;28;20341;-66
2022/06/02 10:06:03;;;;;;;1.10;0.90;;;;;;;;;;5049704;28;20206;-68
2022/06/02 10:08:39;;;;;;;3.63;1.00;;;;;;;;;;5047527;28;20225;-69
2022/06/02 10:11:18;;;;;;;1.27;1.10;;;;;;;;;;5057875;28;20202;-70
2022/06/02 10:14:02;;;;;;;1.67;1.07;;;;;;;;;;5054116;28;20198;-67
2022/06/02 10:16:36;;;;;;;2.87;0.90;;;;;;;;;;5032202;28;20183;-64
2022/06/02 10:19:12;;;;;;;1.43;1.00;;;;;;;;;;5049689;28;20217;-66
2022/06/02 10:22:01;;;;;;;1.10;0.90;;;;;;;;;;5044662;28;20264;-67
2022/06/02 10:24:34;;;;;;;1.80;1.37;;;;;;;;;;5045714;28;20198;-69
2022/06/02 10:27:10;;;;;;;1.80;1.40;;;;;;;;;;5051596;28;20202;-67
2022/06/02 10:29:56;;;;;;;2.77;1.10;;;;;;;;;;5054400;28;20206;-67
2022/06/02 10:32:34;;;;;;;1.17;1.07;;;;;;;;;;5049897;28;20198;-64
2022/06/02 10:35:23;;;;;;;1.57;1.30;;;;;;;;;;5041755;28;20604;-66
2022/06/02 10:38:27;;;;;;;1.90;1.17;;;;;;;;;;5048766;28;20260;-67
2022/06/02 10:41:15;;;;;;;2.20;1.37;;;;;;;;;;5032494;28;20226;-64
2022/06/02 10:44:07;;;;;;;4.80;1.27;;;;;;;;;;5037019;28;20710;-64
2022/06/02 10:46:41;;;;;;;1.10;1.00;;;;;;;;;;5049236;28;20259;-68
2022/06/02 10:49:23;;;;;;;1.80;0.93;;;;;;;;;;5044976;28;20206;-68
2022/06/02 10:52:10;;;;;;;3.50;1.00;;;;;;;;;;5024261;28;20205;-67
2022/06/02 10:54:38;;;;;;;1.63;0.90;;;;;;;;;;5049039;28;20210;-69
2022/06/02 10:57:26;;;;;;;1.07;0.80;;;;;;;;;;5048252;28;20194;-68
2022/06/02 11:00:07;;;;;;;3.37;0.80;;;;;;;;;;5045450;28;20727;-67
2022/06/02 11:02:55;;;;;;;2.33;1.03;;;;;;;;;;5034732;28;20742;-66
2022/06/02 11:05:42;;;;;;;0.93;0.87;;;;;;;;;;5045870;28;20204;-68
2022/06/02 11:09:03;;;;;;;2.43;1.03;;;;;;;;;;5045891;28;20186;-68
2022/06/02 11:11:47;;;;;;;3.97;1.00;;;;;;;;;;4978456;28;21061;-69
2022/06/02 11:14:27;;;;;;;1.87;0.87;;;;;;;;;;5031990;28;20284;-69
2022/06/02 11:17:15;;;;;;;4.40;1.00;;;;;;;;;;5028249;28;20202;-63
2022/06/02 11:20:29;;;;;;;1.37;0.80;;;;;;;;;;5043306;28;20202;-62
2022/06/02 11:23:29;;;;;;;3.80;1.27;;;;;;;;;;5006691;28;20219;-62
2022/06/02 11:26:24;;;;;;;3.70;0.80;;;;;;;;;;4975629;28;20224;-63
2022/06/02 11:29:12;;;;;;;1.30;1.20;;;;;;;;;;5009962;28;20539;-63
2022/06/02 11:32:01;;;;;;;2.23;1.33;;;;;;;;;;5045041;28;20205;-63
2022/06/02 11:34:44;;;;;;;4.20;1.23;;;;;;;;;;5048205;28;20202;-63
2022/06/02 11:37:33;;;;;;;0.80;0.70;;;;;;;;;;5040973;28;20220;-64
2022/06/02 11:40:41;;;;;;;2.33;0.90;;;;;;;;;;5033121;28;20202;-60
2022/06/02 11:43:14;;;;;;;4.60;0.90;;;;;;;;;;5041833;28;20225;-60
2022/06/02 11:46:02;;;;;;;4.63;1.00;;;;;;;;;;5052629;28;20198;-63
2022/06/02 11:48:50;;;;;;;3.60;1.03;;;;;;;;;;5023469;28;20207;-67
2022/06/02 11:51:36;;;;;;;1.50;0.97;;;;;;;;;;5042947;28;20244;-64
2022/06/02 11:54:24;;;;;;;8.83;1.30;;;;;;;;;;5046821;28;20234;-64
2022/06/02 11:57:20;;;;;;;3.20;1.00;;;;;;;;;;5050772;28;20256;-63
2022/06/02 12:00:03;;;;;;;2.27;1.00;;;;;;;;;;5041340;28;20240;-60
2022/06/02 12:02:51;;;;;;;6.37;0.90;;;;;;;;;;5041554;28;20306;-61
2022/06/02 12:05:41;;;;;;;1.53;1.10;;;;;;;;;;5000741;28;20211;-64
2022/06/02 12:08:26;;;;;;;2.83;1.03;;;;;;;;;;5019057;28;20207;-64
2022/06/02 12:11:16;;;;;;;3.33;1.60;;;;;;;;;;5029662;28;20195;-63
2022/06/02 12:13:58;;;;;;;5.03;1.30;;;;;;;;;;5013788;28;20199;-67
2022/06/02 12:16:43;;;;;;;6.87;1.30;;;;;;;;;;5020812;28;20207;-64
2022/06/02 12:19:14;;;;;;;7.17;1.40;;;;;;;;;;5004031;28;20802;-63
2022/06/02 12:22:03;;;;;;;1.87;0.90;;;;;;;;;;5025160;28;20187;-64
2022/06/02 12:24:34;;;;;;;3.83;1.10;;;;;;;;;;5021507;28;20683;-64
2022/06/02 12:27:20;;;;;;;3.67;1.20;;;;;;;;;;5025416;28;20206;-62
2022/06/02 12:30:06;;;;;;;6.27;0.97;;;;;;;;;;5025807;28;20596;-63
2022/06/02 12:32:53;;;;;;;4.57;1.10;;;;;;;;;;5026112;28;20621;-64
2022/06/02 12:35:26;;;;;;;3.80;1.13;;;;;;;;;;5017639;28;20183;-65
2022/06/02 12:37:59;;;;;;;1.43;1.10;;;;;;;;;;5023766;28;20253;-67
2022/06/02 12:40:26;;;;;;;3.00;1.40;;;;;;;;;;5008466;28;20218;-64
2022/06/02 12:43:30;;;;;;;2.80;1.37;;;;;;;;;;5024412;28;20210;-63
2022/06/02 12:46:16;;;;;;;1.73;1.20;;;;;;;;;;5021293;28;20195;-63
2022/06/02 12:49:07;;;;;;;2.93;1.60;;;;;;;;;;5020623;28;20203;-64
2022/06/02 12:51:40;;;;;;;2.60;1.60;;;;;;;;;;5022945;28;20222;-62
2022/06/02 12:54:16;;;;;;;4.20;1.50;;;;;;;;;;5025182;28;20199;-63
2022/06/02 12:56:43;;;;;;;2.23;1.30;;;;;;;;;;5026550;28;20206;-66
2022/06/02 12:59:20;;;;;;;4.17;1.80;;;;;;;;;;5024882;28;20199;-66
2022/06/02 13:01:47;;;;;;;3.03;1.70;;;;;;;;;;5017279;28;20316;-65
2022/06/02 13:04:14;;;;;;;3.03;1.50;;;;;;;;;;5034539;28;20594;-65
2022/06/02 13:06:45;;;;;;;1.57;1.33;;;;;;;;;;5033361;28;20200;-65
2022/06/02 13:09:30;;;;;;;1.30;1.13;;;;;;;;;;5032862;28;20206;-66
2022/06/02 13:12:16;;;;;;;2.27;1.40;;;;;;;;;;5041590;28;20222;-64
2022/06/02 13:15:05;;;;;;;1.53;1.30;;;;;;;;;;5044580;28;20252;-65
2022/06/02 13:17:38;;;;;;;1.37;1.27;;;;;;;;;;5040544;28;20397;-64
2022/06/02 13:20:24;;;;;;;1.50;1.40;;;;;;;;;;5039111;28;20214;-64
2022/06/02 13:23:13;;;;;;;2.47;1.60;;;;;;;;;;5042277;28;20272;-64
2022/06/02 13:25:44;;;;;;;1.53;1.40;;;;;;;;;;5042568;28;20263;-65
2022/06/02 13:28:21;;;;;;;1.50;1.40;;;;;;;;;;5041954;28;20612;-65
2022/06/02 13:30:54;;;;;;;1.30;1.20;;;;;;;;;;5044051;28;20217;-65
2022/06/02 13:33:26;;;;;;;1.97;1.60;;;;;;;;;;5036948;28;20202;-65
2022/06/02 13:35:53;;;;;;;2.60;1.10;;;;;;;;;;5042015;28;20230;-66
2022/06/02 13:38:35;;;;;;;1.30;1.20;;;;;;;;;;5038614;28;20816;-66
2022/06/02 13:41:21;;;;;;;2.23;1.40;;;;;;;;;;5043868;28;20202;-64
2022/06/02 13:43:58;;;;;;;2.43;1.27;;;;;;;;;;5046457;28;20574;-66
2022/06/02 13:46:43;;;;;;;1.17;1.07;;;;;;;;;;5052978;28;20732;-66
2022/06/02 13:49:10;;;;;;;1.20;1.10;;;;;;;;;;5045721;28;20268;-67
2022/06/02 13:51:56;;;;;;;3.50;1.30;;;;;;;;;;5039468;28;20272;-66
2022/06/02 13:57:42;;;;;;;4.63;1.10;;;;;;;;;;5043723;28;20212;-66
2022/06/02 14:00:28;;;;;;;2.47;0.97;;;;;;;;;;5046119;28;20259;-68
2022/06/02 14:03:07;;;;;;;1.47;1.37;;;;;;;;;;5044404;28;20261;-67
2022/06/02 14:05:34;;;;;;;2.00;1.60;;;;;;;;;;5046364;28;20191;-67
2022/06/02 14:08:12;;;;;;;1.90;1.40;;;;;;;;;;5045267;28;20249;-68
2022/06/02 14:11:00;;;;;;;2.77;1.30;;;;;;;;;;5035894;28;20199;-65
2022/06/02 14:13:57;;;;;;;1.00;1.00;;;;;;;;;;5037602;28;20929;-65
2022/06/02 14:16:53;;;;;;;5.83;1.10;;;;;;;;;;5045518;28;20198;-65
2022/06/02 14:19:35;;;;;;;3.17;1.10;;;;;;;;;;5043163;28;20202;-65
2022/06/02 14:22:04;;;;;;;3.37;1.10;;;;;;;;;;5042360;28;20206;-68
2022/06/02 14:24:42;;;;;;;8.70;1.30;;;;;;;;;;5041480;28;20215;-66
2022/06/02 14:27:23;;;;;;;2.97;1.00;;;;;;;;;;5048237;28;20202;-67
2022/06/02 14:30:05;;;;;;;1.57;0.90;;;;;;;;;;5045145;28;20202;-67
2022/06/02 14:33:07;;;;;;;1.57;1.33;;;;;;;;;;5042736;28;20690;-66
2022/06/02 14:35:58;;;;;;;2.20;1.20;;;;;;;;;;4996128;28;20237;-64
2022/06/02 14:38:44;;;;;;;1.23;1.03;;;;;;;;;;5045056;28;20605;-66
2022/06/02 14:41:38;;;;;;;2.77;0.97;;;;;;;;;;5048998;28;20275;-65
2022/06/02 14:44:26;;;;;;;2.03;1.13;;;;;;;;;;5038448;28;20272;-66
2022/06/02 14:47:12;;;;;;;2.60;0.90;;;;;;;;;;5039094;28;20275;-67
2022/06/02 14:49:40;;;;;;;1.40;1.20;;;;;;;;;;5047723;28;20628;-69
2022/06/02 14:52:36;;;;;;;2.30;1.50;;;;;;;;;;5046357;28;20260;-64
2022/06/02 14:55:11;;;;;;;1.00;1.00;;;;;;;;;;4996503;28;20206;-65
2022/06/02 14:57:56;;;;;;;2.70;1.10;;;;;;;;;;5044722;28;20205;-64
2022/06/02 15:00:49;;;;;;;1.87;1.50;;;;;;;;;;5035644;28;20222;-64
2022/06/02 15:03:55;;;;;;;4.10;1.30;;;;;;;;;;5043663;28;20226;-65
2022/06/02 15:06:43;;;;;;;3.03;1.50;;;;;;;;;;4998491;28;20685;-66
2022/06/02 15:09:15;;;;;;;4.50;1.70;;;;;;;;;;5018318;28;20199;-65
2022/06/02 15:11:49;;;;;;;3.30;1.20;;;;;;;;;;5039511;28;20700;-66
2022/06/02 15:14:38;;;;;;;1.70;1.50;;;;;;;;;;5041221;28;20205;-66
2022/06/02 15:17:27;;;;;;;1.20;1.10;;;;;;;;;;5028852;28;20198;-64
2022/06/02 15:20:08;;;;;;;1.20;1.10;;;;;;;;;;5019361;28;20213;-65
2022/06/02 15:23:06;;;;;;;3.87;1.47;;;;;;;;;;5027161;28;20201;-66
2022/06/02 15:25:54;;;;;;;3.07;2.40;;;;;;;;;;5046742;28;20567;-67
2022/06/02 15:28:44;;;;;;;2.07;1.80;;;;;;;;;;5047217;28;20197;-67
2022/06/02 15:31:21;;;;;;;4.70;2.23;;;;;;;;;;5024980;28;20226;-66
2022/06/02 15:34:21;;;;;;;2.97;1.93;;;;;;;;;;5046287;28;20226;-66
2022/06/02 15:37:11;;;;;;;2.33;1.70;;;;;;;;;;5043956;28;20264;-66
2022/06/02 15:39:57;;;;;;;2.50;1.80;;;;;;;;;;5028954;28;20648;-67
2022/06/02 15:42:44;;;;;;;5.63;2.30;;;;;;;;;;5045587;28;20198;-66
2022/06/02 15:45:38;;;;;;;2.70;1.90;;;;;;;;;;5040056;28;20217;-65
2022/06/02 15:48:19;;;;;;;5.27;2.30;;;;;;;;;;5035046;28;20249;-65
2022/06/02 15:51:03;;;;;;;4.00;2.00;;;;;;;;;;5044146;28;20198;-67
2022/06/02 15:54:00;;;;;;;2.10;1.73;;;;;;;;;;5044678;28;20198;-67
2022/06/02 15:56:55;;;;;;;2.10;1.93;;;;;;;;;;5046960;28;20203;-65
2022/06/02 15:59:42;;;;;;;1.73;1.63;;;;;;;;;;5034643;28;20215;-65
2022/06/02 16:02:29;;;;;;;2.53;1.97;;;;;;;;;;5037343;28;20831;-63
2022/06/02 16:05:16;;;;;;;1.60;1.50;;;;;;;;;;5043414;28;20241;-63
2022/06/02 16:08:15;;;;;;;1.50;1.40;;;;;;;;;;5044922;28;20230;-64
2022/06/02 16:11:16;;;;;;;2.20;1.67;;;;;;;;;;5043946;28;20274;-65
2022/06/02 16:14:07;;;;;;;1.87;1.73;;;;;;;;;;5043031;28;20204;-65
2022/06/02 16:16:40;;;;;;;2.70;1.60;;;;;;;;;;5048473;28;20186;-67
2022/06/02 16:19:28;;;;;;;1.70;1.60;;;;;;;;;;5048134;28;20208;-67
2022/06/02 16:22:15;;;;;;;2.27;1.80;;;;;;;;;;5006341;28;20655;-67
2022/06/02 16:25:02;;;;;;;4.47;2.17;;;;;;;;;;5037903;28;20699;-67